createdAt,value
2022-08-14T00:02:08.628Z,10.68
2022-08-14T00:05:17.414Z,10.95
2022-08-14T00:08:44.490Z,10.93
2022-08-14T00:11:45.258Z,10.55
2022-08-14T00:14:48.488Z,13.95
2022-08-14T00:17:58.239Z,9.75
2022-08-14T00:21:01.607Z,12.32
2022-08-14T00:24:08.159Z,14.45
2022-08-14T00:27:13.048Z,10.50
2022-08-14T00:30:20.263Z,11.68
2022-08-14T00:33:23.269Z,15.77
2022-08-14T00:36:50.976Z,10.40
2022-08-14T00:39:55.667Z,11.50
2022-08-14T00:42:58.794Z,10.43
2022-08-14T00:46:08.021Z,11.07
2022-08-14T00:49:14.529Z,12.48
2022-08-14T00:52:18.706Z,10.80
2022-08-14T00:55:23.483Z,10.95
2022-08-14T00:58:33.391Z,10.65
2022-08-14T01:01:37.429Z,11.32
2022-08-14T01:04:53.397Z,10.93
2022-08-14T01:07:59.343Z,13.73
2022-08-14T01:11:05.587Z,10.32
2022-08-14T01:14:25.382Z,10.82
2022-08-14T01:17:50.036Z,13.20
2022-08-14T01:21:08.867Z,13.10
2022-08-14T01:24:24.685Z,14.82
2022-08-14T01:27:56.832Z,12.02
2022-08-14T01:30:59.420Z,11.00
2022-08-14T01:35:17.635Z,13.07
2022-08-14T01:37:29.568Z,13.02
2022-08-14T01:40:41.589Z,13.77
2022-08-14T01:43:56.691Z,11.73
2022-08-14T01:47:02.406Z,14.18
2022-08-14T01:50:11.182Z,12.75
2022-08-14T01:53:17.801Z,15.85
2022-08-14T01:56:24.546Z,14.80
2022-08-14T01:59:37.997Z,13.93
2022-08-14T02:02:42.534Z,14.88
2022-08-14T02:05:49.929Z,16.58
2022-08-14T02:08:55.239Z,14.38
2022-08-14T02:12:00.786Z,16.40
2022-08-14T02:15:09.233Z,17.95
2022-08-14T02:18:15.091Z,15.57
2022-08-14T02:21:23.420Z,14.73
2022-08-14T02:24:39.014Z,17.05
2022-08-14T02:28:22.181Z,13.50
2022-08-14T02:31:09.455Z,13.13
2022-08-14T02:34:21.922Z,15.77
2022-08-14T02:37:46.389Z,14.27
2022-08-14T02:40:51.537Z,17.55
2022-08-14T02:44:00.667Z,14.15
2022-08-14T02:47:07.098Z,12.77
2022-08-14T02:50:17.888Z,13.27
2022-08-14T02:53:21.119Z,14.63
2022-08-14T02:56:30.334Z,15.50
2022-08-14T02:59:50.931Z,12.70
2022-08-14T03:02:59.139Z,11.43
2022-08-14T03:06:03.063Z,11.90
2022-08-14T03:09:06.564Z,14.32
2022-08-14T03:12:10.818Z,12.70
2022-08-14T03:15:16.434Z,13.75
2022-08-14T03:18:31.697Z,13.13
2022-08-14T03:21:39.566Z,16.02
2022-08-14T03:24:43.965Z,14.63
2022-08-14T03:27:48.280Z,13.20
2022-08-14T03:31:04.246Z,19.90
2022-08-14T03:34:14.375Z,18.15
2022-08-14T03:38:01.703Z,13.52
2022-08-14T03:40:52.371Z,13.35
2022-08-14T03:45:27.374Z,12.25
2022-08-14T03:47:46.209Z,11.57
2022-08-14T03:50:52.559Z,12.02
2022-08-14T03:54:02.081Z,13.82
2022-08-14T03:57:05.860Z,13.45
2022-08-14T04:00:40.484Z,13.60
2022-08-14T04:03:37.901Z,19.27
2022-08-14T04:06:47.512Z,15.07
2022-08-14T04:09:52.693Z,15.05
2022-08-14T04:13:03.691Z,16.33
2022-08-14T04:16:12.366Z,14.70
2022-08-14T04:19:23.959Z,14.00
2022-08-14T04:22:27.658Z,24.35
2022-08-14T04:25:33.802Z,30.38
2022-08-14T04:29:06.863Z,28.15
2022-08-14T04:32:58.456Z,16.52
2022-08-14T04:35:25.624Z,17.20
2022-08-14T04:39:06.723Z,17.65
2022-08-14T04:42:29.668Z,20.00
2022-08-14T04:45:40.938Z,20.48
2022-08-14T04:48:51.192Z,16.95
2022-08-14T04:52:04.092Z,22.20
2022-08-14T04:55:18.657Z,13.05
2022-08-14T04:58:32.204Z,16.50
2022-08-14T05:01:40.079Z,14.48
2022-08-14T05:04:45.162Z,16.08
2022-08-14T05:08:12.195Z,16.35
2022-08-14T05:11:36.705Z,16.58
2022-08-14T05:14:46.845Z,14.57
2022-08-14T05:18:17.794Z,15.95
2022-08-14T05:21:59.994Z,15.70
2022-08-14T05:24:51.408Z,13.25
2022-08-14T05:28:00.490Z,13.13
2022-08-14T05:31:07.948Z,17.08
2022-08-14T05:34:12.140Z,13.77
2022-08-14T05:37:16.153Z,17.67
2022-08-14T05:40:20.557Z,14.65
2022-08-14T05:43:24.318Z,15.05
2022-08-14T05:46:44.328Z,13.05
2022-08-14T05:49:49.891Z,14.43
2022-08-14T05:52:55.245Z,13.52
2022-08-14T05:56:00.132Z,14.63
2022-08-14T05:59:03.257Z,17.33
2022-08-14T06:02:06.975Z,16.55
2022-08-14T06:05:10.196Z,17.25
2022-08-14T06:08:21.670Z,15.95
2022-08-14T06:11:35.719Z,16.17
2022-08-14T06:14:39.651Z,16.10
2022-08-14T06:17:47.110Z,17.73
2022-08-14T06:20:59.024Z,16.25
2022-08-14T06:24:02.136Z,14.23
2022-08-14T06:27:09.887Z,15.05
2022-08-14T06:30:16.408Z,17.77
2022-08-14T06:33:21.024Z,17.83
2022-08-14T06:36:25.878Z,19.50
2022-08-14T06:39:36.968Z,23.30
2022-08-14T06:42:43.296Z,14.70
2022-08-14T06:45:54.299Z,13.93
2022-08-14T06:48:57.684Z,12.40
2022-08-14T06:52:01.187Z,14.65
2022-08-14T06:55:05.767Z,13.13
2022-08-14T06:58:28.894Z,12.30
2022-08-14T07:01:49.994Z,11.70
2022-08-14T07:05:10.245Z,12.07
2022-08-14T07:08:23.264Z,16.25
2022-08-14T07:11:29.587Z,13.13
2022-08-14T07:14:34.398Z,17.15
2022-08-14T07:17:46.560Z,16.13
2022-08-14T07:20:56.738Z,12.95
2022-08-14T07:23:59.694Z,12.40
2022-08-14T07:27:02.659Z,12.95
2022-08-14T07:30:09.105Z,13.60
2022-08-14T07:33:35.590Z,13.68
2022-08-14T07:36:39.693Z,13.70
2022-08-14T07:40:02.432Z,12.23
2022-08-14T07:43:14.494Z,12.48
2022-08-14T07:46:21.293Z,11.98
2022-08-14T07:49:34.123Z,14.80
2022-08-14T07:52:40.282Z,17.90
2022-08-14T07:55:46.429Z,11.48
2022-08-14T07:59:04.074Z,12.55
2022-08-14T08:02:19.558Z,9.88
2022-08-14T08:05:26.828Z,11.77
2022-08-14T08:08:31.830Z,9.88
2022-08-14T08:11:37.117Z,9.77
2022-08-14T08:14:55.698Z,10.77
2022-08-14T08:18:08.953Z,9.77
2022-08-14T08:21:23.625Z,11.05
2022-08-14T08:24:30.496Z,11.02
2022-08-14T08:27:33.489Z,10.80
2022-08-14T08:30:49.633Z,10.15
2022-08-14T08:33:55.058Z,10.88
2022-08-14T08:37:03.869Z,10.23
2022-08-14T08:40:11.096Z,10.23
2022-08-14T08:43:27.543Z,9.32
2022-08-14T08:46:30.701Z,12.85
2022-08-14T08:49:43.215Z,10.55
2022-08-14T08:52:54.351Z,11.85
2022-08-14T08:55:58.260Z,12.75
2022-08-14T08:59:01.427Z,8.68
2022-08-14T09:02:10.497Z,8.57
2022-08-14T09:05:15.043Z,12.25
2022-08-14T09:08:30.394Z,8.88
2022-08-14T09:11:36.257Z,14.32
2022-08-14T09:14:39.851Z,8.15
2022-08-14T09:17:44.475Z,9.80
2022-08-14T09:20:58.827Z,7.88
2022-08-14T09:24:28.369Z,8.93
2022-08-14T09:27:25.783Z,8.73
2022-08-14T09:30:32.374Z,10.85
2022-08-14T09:33:57.446Z,8.77
2022-08-14T09:37:23.627Z,10.32
2022-08-14T09:40:55.229Z,10.50
2022-08-14T09:44:07.520Z,10.75
2022-08-14T09:47:11.059Z,6.10
2022-08-14T09:50:21.250Z,8.52
2022-08-14T09:54:17.726Z,8.77
2022-08-14T09:57:10.246Z,4.95
2022-08-14T10:00:29.230Z,5.95
2022-08-14T10:03:36.694Z,7.78
2022-08-14T10:06:45.428Z,7.30
2022-08-14T10:10:01.969Z,6.80
2022-08-14T10:13:08.606Z,5.38
2022-08-14T10:16:21.760Z,6.28
2022-08-14T10:19:29.258Z,5.45
2022-08-14T10:23:14.631Z,9.73
2022-08-14T10:26:08.617Z,5.00
2022-08-14T10:29:20.145Z,5.07
2022-08-14T10:32:36.356Z,5.85
2022-08-14T10:35:48.072Z,9.02
2022-08-14T10:38:58.948Z,7.63
2022-08-14T10:42:18.169Z,4.70
2022-08-14T10:45:26.808Z,5.88
2022-08-14T10:48:36.883Z,6.30
2022-08-14T10:51:42.450Z,8.93
2022-08-14T10:54:48.316Z,6.15
2022-08-14T10:58:00.752Z,7.22
2022-08-14T11:01:07.863Z,12.52
2022-08-14T11:04:25.836Z,32.30
2022-08-14T11:07:31.813Z,7.75
2022-08-14T11:10:47.776Z,7.25
2022-08-14T11:13:58.307Z,4.93
2022-08-14T11:17:01.542Z,6.32
2022-08-14T11:20:14.488Z,6.15
2022-08-14T11:23:22.838Z,6.35
2022-08-14T11:26:28.031Z,7.03
2022-08-14T11:29:36.202Z,5.10
2022-08-14T11:32:42.204Z,7.00
2022-08-14T11:35:49.845Z,4.93
2022-08-14T11:38:53.856Z,8.32
2022-08-14T11:41:58.019Z,5.70
2022-08-14T11:45:11.366Z,8.32
2022-08-14T11:49:04.360Z,5.13
2022-08-14T11:51:54.976Z,5.38
2022-08-14T11:55:00.479Z,7.93
2022-08-14T11:58:08.414Z,5.13
2022-08-14T12:01:12.796Z,5.35
2022-08-14T12:04:31.650Z,8.20
2022-08-14T12:07:36.892Z,5.90
2022-08-14T12:10:59.150Z,7.13
2022-08-14T12:14:29.145Z,10.07
2022-08-14T12:17:49.324Z,7.28
2022-08-14T12:20:54.251Z,7.03
2022-08-14T12:24:08.526Z,9.57
2022-08-14T12:27:13.090Z,7.60
2022-08-14T12:30:37.366Z,5.57
2022-08-14T12:33:47.074Z,7.82
2022-08-14T12:37:05.689Z,4.68
2022-08-14T12:40:19.580Z,7.45
2022-08-14T12:43:24.023Z,4.85
2022-08-14T12:46:31.552Z,5.38
2022-08-14T12:49:36.416Z,4.70
2022-08-14T12:52:58.694Z,4.60
2022-08-14T12:56:21.386Z,7.20
2022-08-14T12:59:33.152Z,5.45
2022-08-14T13:02:45.894Z,6.95
2022-08-14T13:05:51.131Z,6.60
2022-08-14T13:09:00.030Z,6.38
2022-08-14T13:12:34.932Z,4.93
2022-08-14T13:15:29.767Z,5.82
2022-08-14T13:18:34.151Z,4.88
2022-08-14T13:21:58.506Z,5.68
2022-08-14T13:25:09.224Z,7.38
2022-08-14T13:28:30.100Z,4.38
2022-08-14T13:31:39.367Z,4.20
2022-08-14T13:34:45.456Z,5.03
2022-08-14T13:37:53.581Z,3.92
2022-08-14T13:40:58.929Z,3.80
2022-08-14T13:44:02.050Z,5.25
2022-08-14T13:47:06.906Z,4.55
2022-08-14T13:50:15.692Z,4.32
2022-08-14T13:53:27.818Z,5.50
2022-08-14T13:56:41.995Z,5.57
2022-08-14T13:59:48.698Z,4.50
2022-08-14T14:02:56.267Z,5.45
2022-08-14T14:06:02.713Z,4.15
2022-08-14T14:09:11.463Z,5.35
2022-08-14T14:12:37.431Z,4.13
2022-08-14T14:15:48.717Z,7.40
2022-08-14T14:19:09.429Z,5.50
2022-08-14T14:22:35.643Z,4.25
2022-08-14T14:25:51.030Z,4.95
2022-08-14T14:29:01.646Z,5.38
2022-08-14T14:32:06.475Z,3.88
2022-08-14T14:35:15.293Z,5.22
2022-08-14T14:38:19.846Z,4.18
2022-08-14T14:41:37.951Z,5.82
2022-08-14T14:44:43.110Z,8.80
2022-08-14T14:47:49.211Z,3.80
2022-08-14T14:50:53.008Z,3.95
2022-08-14T14:53:57.582Z,4.30
2022-08-14T14:57:04.496Z,5.20
2022-08-14T15:00:18.639Z,3.60
2022-08-14T15:03:23.158Z,9.32
2022-08-14T15:06:30.303Z,8.43
2022-08-14T15:09:34.991Z,5.32
2022-08-14T15:12:56.149Z,6.25
2022-08-14T15:16:01.467Z,5.32
2022-08-14T15:19:06.122Z,3.75
2022-08-14T15:22:10.627Z,4.47
2022-08-14T15:25:14.722Z,4.22
2022-08-14T15:28:23.167Z,13.15
2022-08-14T15:31:26.333Z,4.47
2022-08-14T15:34:44.342Z,3.83
2022-08-14T15:37:55.900Z,4.55
2022-08-14T15:41:02.416Z,7.18
2022-08-14T15:44:24.738Z,7.38
2022-08-14T15:47:33.230Z,3.75
2022-08-14T15:50:43.312Z,4.75
2022-08-14T15:53:46.670Z,4.55
2022-08-14T15:57:00.470Z,3.95
2022-08-14T16:00:43.329Z,5.70
2022-08-14T16:03:48.289Z,3.42
2022-08-14T16:06:55.432Z,4.70
2022-08-14T16:10:27.741Z,4.80
2022-08-14T16:13:41.292Z,5.07
2022-08-14T16:16:51.559Z,4.25
2022-08-14T16:20:06.826Z,7.38
2022-08-14T16:23:12.342Z,5.55
2022-08-14T16:26:22.050Z,4.03
2022-08-14T16:29:35.694Z,4.65
2022-08-14T16:32:54.582Z,5.25
2022-08-14T16:36:01.543Z,5.32
2022-08-14T16:39:08.255Z,6.22
2022-08-14T16:42:39.108Z,5.00
2022-08-14T16:45:43.841Z,6.53
2022-08-14T16:48:55.635Z,6.82
2022-08-14T16:52:25.006Z,5.85
2022-08-14T16:55:30.216Z,8.52
2022-08-14T16:58:34.495Z,6.75
2022-08-14T17:01:40.554Z,5.10
2022-08-14T17:04:44.982Z,5.90
2022-08-14T17:08:32.451Z,7.45
2022-08-14T17:11:54.599Z,5.22
2022-08-14T17:15:03.884Z,11.00
2022-08-14T17:18:22.353Z,7.88
2022-08-14T17:21:41.123Z,8.82
2022-08-14T17:24:56.538Z,8.00
2022-08-14T17:28:49.940Z,7.07
2022-08-14T17:31:58.590Z,7.10
2022-08-14T17:35:03.903Z,8.23
2022-08-14T17:38:38.456Z,6.95
2022-08-14T17:41:43.394Z,6.90
2022-08-14T17:44:48.140Z,6.53
2022-08-14T17:47:52.011Z,7.85
2022-08-14T17:51:00.405Z,6.97
2022-08-14T17:54:08.374Z,8.85
2022-08-14T17:57:14.542Z,8.02
2022-08-14T18:01:04.862Z,7.72
2022-08-14T18:04:46.055Z,7.90
2022-08-14T18:08:40.597Z,6.13
2022-08-14T18:12:47.940Z,7.78
2022-08-14T18:16:27.818Z,6.60
2022-08-14T18:21:23.192Z,7.30
2022-08-14T18:24:31.676Z,13.98
2022-08-14T18:28:48.164Z,10.75
2022-08-14T18:32:01.979Z,8.15
2022-08-14T18:35:10.979Z,6.78
2022-08-14T18:38:26.373Z,7.00
2022-08-14T18:41:46.969Z,6.28
2022-08-14T18:45:12.732Z,7.68
2022-08-14T18:48:50.214Z,14.05
2022-08-14T18:52:18.945Z,7.97
2022-08-14T18:55:53.958Z,8.77
2022-08-14T18:58:59.014Z,8.55
2022-08-14T19:02:43.761Z,8.93
2022-08-14T19:05:59.423Z,8.40
2022-08-14T19:09:03.927Z,8.38
2022-08-14T19:12:07.777Z,7.72
2022-08-14T19:15:25.987Z,13.05
2022-08-14T19:18:38.215Z,9.02
2022-08-14T19:21:44.966Z,9.07
2022-08-14T19:24:50.589Z,9.57
2022-08-14T19:28:27.389Z,8.60
2022-08-14T19:31:42.108Z,8.18
2022-08-14T19:34:52.740Z,12.38
2022-08-14T19:37:57.919Z,10.00
2022-08-14T19:41:02.510Z,12.57
2022-08-14T19:44:13.142Z,8.88
2022-08-14T19:47:17.650Z,10.43
2022-08-14T19:50:38.284Z,8.90
2022-08-14T19:53:56.387Z,10.65
2022-08-14T19:56:59.922Z,13.80
2022-08-14T20:00:28.701Z,17.67
2022-08-14T20:04:00.089Z,10.95
2022-08-14T20:07:06.493Z,12.65
2022-08-14T20:11:04.103Z,10.80
2022-08-14T20:14:01.850Z,13.98
2022-08-14T20:17:06.981Z,10.52
2022-08-14T20:20:20.914Z,10.07
2022-08-14T20:23:38.607Z,13.98
2022-08-14T20:26:46.916Z,10.23
2022-08-14T20:33:47.600Z,11.15
2022-08-14T20:37:01.660Z,9.25
2022-08-14T20:40:23.821Z,11.95
2022-08-14T20:43:47.615Z,13.05
2022-08-14T20:47:00.890Z,9.82
2022-08-14T20:50:18.656Z,10.05
2022-08-14T20:53:32.879Z,11.02
2022-08-14T20:56:40.637Z,10.40
2022-08-14T20:59:50.555Z,13.73
2022-08-14T21:02:55.377Z,9.18
2022-08-14T21:06:19.503Z,10.85
2022-08-14T21:10:03.111Z,10.02
2022-08-14T21:13:24.652Z,10.02
2022-08-14T21:16:25.957Z,11.00
2022-08-14T21:19:38.753Z,10.05
2022-08-14T21:22:45.002Z,10.25
2022-08-14T21:25:50.962Z,12.90
2022-08-14T21:28:53.947Z,10.27
2022-08-14T21:31:57.237Z,14.60
2022-08-14T21:35:08.456Z,15.02
2022-08-14T21:38:17.950Z,11.10
2022-08-14T21:41:42.345Z,12.93
2022-08-14T21:44:51.318Z,11.75
2022-08-14T21:47:56.710Z,15.30
2022-08-14T21:51:55.002Z,13.95
2022-08-14T21:54:49.544Z,14.40
2022-08-14T21:58:52.299Z,13.93
2022-08-14T22:01:16.237Z,14.27
2022-08-14T22:04:33.331Z,15.85
2022-08-14T22:07:39.931Z,18.77
2022-08-14T22:10:47.815Z,21.60
2022-08-14T22:13:55.949Z,24.63
2022-08-14T22:17:12.840Z,14.50
2022-08-14T22:20:19.757Z,17.55
2022-08-14T22:23:27.231Z,14.45
2022-08-14T22:26:32.439Z,15.57
2022-08-14T22:29:35.858Z,15.05
2022-08-14T22:32:56.664Z,12.48
2022-08-14T22:36:25.473Z,13.75
2022-08-14T22:40:17.792Z,13.35
2022-08-14T22:43:00.155Z,12.98
2022-08-14T22:46:06.182Z,18.52
2022-08-14T22:50:30.169Z,15.95
2022-08-14T22:52:49.291Z,13.48
2022-08-14T22:55:54.283Z,14.35
2022-08-14T22:58:59.185Z,18.60
2022-08-14T23:02:11.661Z,15.02
2022-08-14T23:05:15.475Z,16.48
2022-08-14T23:09:00.399Z,12.93
2022-08-14T23:11:46.720Z,20.60
2022-08-14T23:14:50.308Z,13.82
2022-08-14T23:17:54.368Z,15.82
2022-08-14T23:20:57.662Z,13.77
2022-08-14T23:24:00.672Z,14.57
2022-08-14T23:27:09.247Z,14.15
2022-08-14T23:30:31.579Z,13.25
2022-08-14T23:33:45.605Z,13.43
2022-08-14T23:36:57.775Z,13.50
2022-08-14T23:40:01.888Z,14.63
2022-08-14T23:43:09.278Z,13.85
2022-08-14T23:46:14.959Z,14.85
2022-08-14T23:49:20.286Z,14.70
2022-08-14T23:52:50.819Z,14.80
2022-08-14T23:55:47.392Z,15.45
2022-08-14T23:59:01.732Z,17.58
